Cambridge, Iowa
Current Conditions -  °F | °C
As of 2:53 PM on Thursday 27 Nov 2014 (Local Time) from KAMW Reporting Station
Clear Clear  
Wind Chill:   Ceiling: Unl
Heat Index:   Visibility: 10mi
Dew Point: -1°   Wind: 3mph
Humidity: 67%   Direction: 210°SSW
Pressure: 30.45"   Gusts: NA
Location:  41.9°N, 93.53°W
Report Text: KAMW 272053Z AUTO 21003KT 10SM CLR M13/M18 A3045 RMK AO2 SLP330 T11331183 56027 $
Loading
Personal Weather Stations






























Interactive Weather Map New forecast layout! Learn more

10-Day Weather Forecast

Advertisements
Track Severe Weather on mobile